Time;durP1;ratioP1;P1;durP2;ratioP2;P2;SDS_P1;SDS_P2;PMS_P1;PMS_P2;Temp;Humidity;BMP_temperature;BMP_pressure;BME280_temperature;BME280_humidity;BME280_pressure;Samples;Min_cycle;Max_cycle;Signal;HPM_P1;HPM_P2
2021/12/08 00:00:18;;;;;;;49.50;22.50;;;-0.80;96.30;;;;;;4879389;29;20442;-79
2021/12/08 00:02:45;;;;;;;43.80;22.83;;;-0.80;96.30;;;;;;4879478;29;20457;-79
2021/12/08 00:05:12;;;;;;;45.83;21.90;;;-0.90;96.30;;;;;;4878440;29;20443;-79
2021/12/08 00:07:38;;;;;;;54.67;23.43;;;-0.90;96.30;;;;;;4878050;29;20422;-79
2021/12/08 00:13:05;;;;;;;45.10;23.00;;;-0.80;96.30;;;;;;4881070;29;20420;-79
2021/12/08 00:15:42;;;;;;;49.77;21.67;;;-0.90;96.30;;;;;;4883687;29;20914;-79
2021/12/08 00:18:10;;;;;;;51.57;24.17;;;-0.80;96.30;;;;;;4886978;29;20418;-78
2021/12/08 00:20:37;;;;;;;46.27;20.67;;;-0.90;96.30;;;;;;4883211;29;21022;-79
2021/12/08 00:23:04;;;;;;;44.77;21.67;;;-0.90;96.30;;;;;;4881146;29;20830;-79
2021/12/08 00:25:30;;;;;;;32.07;15.80;;;-0.80;96.30;;;;;;4881312;29;20425;-79
2021/12/08 00:27:57;;;;;;;41.60;19.87;;;-0.90;96.30;;;;;;4883036;29;20907;-79
2021/12/08 00:30:23;;;;;;;23.27;13.40;;;-0.90;96.30;;;;;;4901051;29;20464;-79
2021/12/08 00:32:51;;;;;;;34.90;17.03;;;-0.90;96.30;;;;;;4901094;29;20424;-80
2021/12/08 00:35:16;;;;;;;16.63;10.50;;;-0.90;96.30;;;;;;4901025;29;20417;-79
2021/12/08 00:37:42;;;;;;;36.43;18.13;;;-0.80;96.30;;;;;;4899457;29;20425;-79
2021/12/08 00:40:10;;;;;;;42.80;17.50;;;-0.80;96.30;;;;;;4901009;29;20232;-79
2021/12/08 00:42:36;;;;;;;40.30;19.67;;;-0.90;96.30;;;;;;4900848;29;20201;-79
2021/12/08 00:45:06;;;;;;;51.07;23.20;;;-0.90;96.30;;;;;;4899528;29;20512;-79
2021/12/08 00:47:32;;;;;;;41.20;20.37;;;-1.00;96.30;;;;;;4899455;29;20785;-79
2021/12/08 00:49:58;;;;;;;32.77;17.67;;;-1.00;96.30;;;;;;4900790;29;20413;-79
2021/12/08 00:52:28;;;;;;;31.10;17.20;;;-1.00;96.30;;;;;;4900656;29;20516;-79
2021/12/08 00:54:55;;;;;;;28.53;15.53;;;-1.00;96.30;;;;;;4899162;29;20181;-79
2021/12/08 00:57:21;;;;;;;29.17;16.73;;;-1.00;96.30;;;;;;4900283;29;20910;-79
2021/12/08 00:59:46;;;;;;;28.20;12.60;;;-1.00;96.30;;;;;;4900087;29;20429;-79
2021/12/08 05:04:33;;;;;;;8.20;5.70;;;-0.40;96.30;;;;;;4881219;29;20480;-78
2021/12/08 05:07:18;;;;;;;10.43;5.30;;;-0.40;96.30;;;;;;4879641;29;20437;-79
2021/12/08 05:09:47;;;;;;;7.87;5.80;;;-0.40;96.30;;;;;;4881123;29;20919;-78
2021/12/08 05:12:20;;;;;;;7.77;5.63;;;-0.40;96.30;;;;;;4879882;29;20457;-77
2021/12/08 05:15:15;;;;;;;6.77;4.53;;;-0.40;96.30;;;;;;4880839;29;20438;-78
2021/12/08 05:17:50;;;;;;;4.50;3.37;;;-0.30;96.30;;;;;;4870910;29;20528;-79
2021/12/08 05:48:49;;;;;;;9.17;5.80;;;-0.40;96.30;;;;;;5101158;23;20493;-78
2021/12/08 05:51:19;;;;;;;10.30;5.80;;;-0.40;96.30;;;;;;4886406;29;20438;-78
2021/12/08 05:53:48;;;;;;;7.97;4.90;;;-0.40;96.30;;;;;;4879530;29;20514;-79
2021/12/08 05:56:15;;;;;;;7.43;5.40;;;-0.50;96.30;;;;;;4870678;29;20934;-78
2021/12/08 05:58:42;;;;;;;11.33;4.77;;;-0.50;96.30;;;;;;4864305;29;20813;-79
2021/12/08 06:01:18;;;;;;;9.20;5.53;;;-0.50;96.30;;;;;;4869170;29;20447;-78
2021/12/08 06:03:47;;;;;;;9.33;5.83;;;-0.50;96.30;;;;;;4864717;29;20454;-79
2021/12/08 06:06:13;;;;;;;10.03;6.20;;;-0.50;96.30;;;;;;4860836;29;20530;-80
2021/12/08 06:08:39;;;;;;;9.13;7.00;;;-0.60;96.30;;;;;;4861124;29;20979;-80
2021/12/08 06:18:52;;;;;;;7.93;5.70;;;-0.60;96.30;;;;;;5108273;23;20483;-78
2021/12/08 06:21:21;;;;;;;10.60;5.20;;;-0.70;96.30;;;;;;4891295;29;20506;-77
2021/12/08 06:23:47;;;;;;;8.27;6.00;;;-0.70;96.30;;;;;;4860191;29;20455;-78
2021/12/08 06:26:17;;;;;;;15.27;7.10;;;-0.80;96.30;;;;;;4890580;29;20434;-79
2021/12/08 06:28:42;;;;;;;11.00;5.67;;;-0.90;96.30;;;;;;4861366;29;20411;-78
2021/12/08 06:31:10;;;;;;;12.43;6.43;;;-0.90;96.30;;;;;;4861166;29;20442;-78
2021/12/08 06:33:35;;;;;;;10.23;5.87;;;-0.90;96.30;;;;;;4891079;29;20186;-78
2021/12/08 06:36:08;;;;;;;16.47;7.63;;;-0.90;96.30;;;;;;4860772;29;20429;-79
2021/12/08 06:38:35;;;;;;;11.90;6.90;;;-1.00;96.30;;;;;;4859578;29;20270;-79
2021/12/08 06:41:05;;;;;;;10.30;6.80;;;-0.90;96.30;;;;;;4859799;29;20451;-79
2021/12/08 06:43:37;;;;;;;8.70;5.67;;;-1.00;96.30;;;;;;4859883;29;20503;-78
2021/12/08 06:46:04;;;;;;;12.07;6.97;;;-1.00;96.30;;;;;;4859300;29;20873;-77
2021/12/08 06:48:37;;;;;;;7.30;6.10;;;-1.00;96.30;;;;;;4860992;29;20423;-76
2021/12/08 06:51:22;;;;;;;11.23;6.10;;;-1.10;96.30;;;;;;4860492;29;20443;-76
2021/12/08 06:53:52;;;;;;;12.37;7.50;;;-1.00;96.30;;;;;;4860811;29;20506;-76
2021/12/08 06:56:29;;;;;;;14.93;8.20;;;-1.10;96.30;;;;;;4859648;29;21006;-76
2021/12/08 06:59:00;;;;;;;21.57;11.33;;;-1.10;96.30;;;;;;4860789;29;20479;-76
2021/12/08 07:01:43;;;;;;;11.20;6.53;;;-1.00;96.30;;;;;;4860772;29;20522;-76
2021/12/08 07:09:28;;;;;;;13.20;8.97;;;-1.00;96.30;;;;;;4860935;29;20455;-76
2021/12/08 07:11:56;;;;;;;14.30;9.30;;;-1.00;96.30;;;;;;4860394;29;20435;-76
2021/12/08 07:14:25;;;;;;;15.93;9.53;;;-1.00;96.30;;;;;;4860543;29;20513;-76
2021/12/08 07:16:54;;;;;;;9.80;5.90;;;-1.00;96.30;;;;;;4860092;29;20431;-75
2021/12/08 07:19:34;;;;;;;15.83;9.20;;;-1.00;96.30;;;;;;4864823;29;20442;-75
2021/12/08 07:22:04;;;;;;;9.70;7.03;;;-1.00;96.30;;;;;;4902424;29;21059;-76
2021/12/08 07:24:34;;;;;;;13.27;7.60;;;-1.00;96.30;;;;;;4859095;29;20470;-75
2021/12/08 07:27:05;;;;;;;16.10;10.67;;;-1.00;96.30;;;;;;4860226;29;20422;-76
2021/12/08 07:29:34;;;;;;;13.80;8.57;;;-1.00;96.30;;;;;;4873156;29;20414;-76
2021/12/08 07:32:08;;;;;;;15.97;11.00;;;-1.00;96.30;;;;;;4878726;29;20524;-75
2021/12/08 07:34:36;;;;;;;10.87;6.77;;;-1.00;96.30;;;;;;4878786;29;20425;-75
2021/12/08 07:37:08;;;;;;;19.97;11.90;;;-1.00;96.30;;;;;;4878589;29;20863;-76
2021/12/08 07:39:43;;;;;;;13.43;8.70;;;-1.00;96.30;;;;;;4857261;29;20442;-76
2021/12/08 07:42:16;;;;;;;14.00;8.50;;;-1.00;96.30;;;;;;4869513;29;20508;-76
2021/12/08 07:44:43;;;;;;;14.87;8.20;;;-0.90;96.30;;;;;;4878558;29;20450;-75
2021/12/08 07:47:11;;;;;;;11.47;8.03;;;-0.90;96.30;;;;;;4878329;29;20914;-77
2021/12/08 07:49:41;;;;;;;10.10;7.27;;;-0.90;96.30;;;;;;4878565;29;20425;-77
2021/12/08 07:52:35;;;;;;;15.27;9.10;;;-0.80;96.30;;;;;;4878388;29;20438;-76
2021/12/08 07:55:09;;;;;;;13.40;8.43;;;-0.80;96.30;;;;;;4877169;29;20430;-76
2021/12/08 07:57:34;;;;;;;13.63;10.40;;;-0.80;96.30;;;;;;4878316;29;20414;-76
2021/12/08 08:00:07;;;;;;;17.13;9.70;;;-0.80;96.30;;;;;;4908531;29;20440;-77
2021/12/08 08:02:33;;;;;;;13.37;8.00;;;-0.70;96.30;;;;;;4878293;29;20205;-77
2021/12/08 08:05:04;;;;;;;13.53;9.60;;;-0.60;96.30;;;;;;4908584;29;20915;-77
2021/12/08 08:07:31;;;;;;;13.73;8.80;;;-0.60;96.30;;;;;;4878249;29;20178;-77
2021/12/08 08:10:01;;;;;;;11.10;8.60;;;-0.60;96.30;;;;;;4878344;29;20442;-77
2021/12/08 08:12:35;;;;;;;11.03;7.93;;;-0.60;96.30;;;;;;4865521;29;20842;-77
2021/12/08 08:15:07;;;;;;;17.20;8.87;;;-0.60;96.30;;;;;;4858630;29;20450;-77
2021/12/08 08:17:39;;;;;;;11.10;8.00;;;-0.50;96.30;;;;;;4859632;29;20501;-77
2021/12/08 08:20:28;;;;;;;11.30;5.93;;;-0.50;96.30;;;;;;4858538;29;20533;-77
2021/12/08 08:22:55;;;;;;;14.50;9.60;;;-0.40;96.30;;;;;;4860949;29;20541;-77
2021/12/08 08:25:23;;;;;;;11.97;8.30;;;-0.40;96.30;;;;;;4859648;29;20457;-77
2021/12/08 08:27:50;;;;;;;10.30;7.87;;;-0.30;96.30;;;;;;4859479;29;20416;-78
2021/12/08 08:30:20;;;;;;;10.10;8.10;;;-0.30;96.30;;;;;;4845591;29;20516;-77
2021/12/08 08:32:50;;;;;;;11.47;8.20;;;-0.30;96.30;;;;;;4840153;29;20424;-77
2021/12/08 08:35:26;;;;;;;14.97;8.40;;;-0.30;96.30;;;;;;4874349;29;20428;-77
2021/12/08 08:37:52;;;;;;;10.40;7.67;;;-0.30;96.30;;;;;;4844739;29;20499;-78
2021/12/08 08:40:26;;;;;;;10.13;8.00;;;-0.20;96.30;;;;;;4844695;29;20415;-77
2021/12/08 08:42:53;;;;;;;11.23;6.87;;;-0.20;96.30;;;;;;4844535;29;20973;-77
2021/12/08 08:45:29;;;;;;;7.87;6.13;;;-0.10;96.30;;;;;;4844782;29;20458;-77
2021/12/08 08:48:02;;;;;;;10.97;7.73;;;0.00;96.30;;;;;;4844495;29;20408;-77
2021/12/08 08:50:40;;;;;;;12.63;8.23;;;0.00;96.30;;;;;;4844594;29;20472;-78
2021/12/08 08:53:07;;;;;;;8.13;6.10;;;0.10;96.30;;;;;;4874267;29;20780;-77
2021/12/08 08:55:48;;;;;;;8.27;5.70;;;0.10;96.30;;;;;;4856011;29;20839;-77
2021/12/08 08:58:15;;;;;;;7.50;5.40;;;0.20;96.30;;;;;;4902089;29;20417;-77
2021/12/08 09:01:07;;;;;;;13.20;6.43;;;0.10;96.30;;;;;;4881453;29;20480;-77
2021/12/08 09:03:43;;;;;;;8.47;5.60;;;0.00;96.30;;;;;;4869488;29;20458;-77
2021/12/08 09:06:14;;;;;;;6.37;4.97;;;0.10;96.30;;;;;;4862657;29;20764;-77
2021/12/08 09:08:42;;;;;;;8.40;6.13;;;0.20;96.30;;;;;;4862606;29;20780;-77
2021/12/08 09:11:22;;;;;;;9.80;6.23;;;0.30;96.30;;;;;;4861353;29;20447;-78
2021/12/08 09:13:51;;;;;;;10.23;7.20;;;0.30;96.30;;;;;;4861508;29;20418;-77
2021/12/08 09:16:22;;;;;;;9.07;5.17;;;0.30;96.30;;;;;;4862154;29;20526;-78
2021/12/08 09:19:03;;;;;;;10.67;7.10;;;0.30;96.30;;;;;;4861454;29;20439;-78
2021/12/08 09:21:57;;;;;;;7.90;6.33;;;0.30;96.30;;;;;;4862794;29;20778;-78
2021/12/08 09:24:33;;;;;;;9.03;5.57;;;0.30;96.30;;;;;;4875491;29;20552;-78
2021/12/08 09:27:01;;;;;;;12.17;7.03;;;0.40;96.30;;;;;;4911218;29;20469;-78
2021/12/08 09:29:43;;;;;;;9.63;6.17;;;0.50;96.30;;;;;;4911700;29;20754;-77
2021/12/08 09:32:13;;;;;;;14.30;7.90;;;0.40;96.30;;;;;;4911495;29;20837;-78
2021/12/08 09:34:46;;;;;;;12.17;8.20;;;0.50;96.30;;;;;;4881408;29;20434;-78
2021/12/08 09:37:19;;;;;;;9.40;5.70;;;0.50;96.30;;;;;;4911198;29;20422;-78
2021/12/08 09:40:18;;;;;;;13.30;7.90;;;0.40;96.30;;;;;;4911039;29;20429;-78
2021/12/08 09:42:50;;;;;;;13.13;8.10;;;0.50;96.30;;;;;;4867622;29;20430;-78
2021/12/08 09:45:22;;;;;;;14.10;9.33;;;0.50;96.30;;;;;;4879633;29;20411;-78
2021/12/08 09:47:47;;;;;;;14.67;8.53;;;0.50;96.30;;;;;;4880543;29;20776;-78
2021/12/08 09:50:15;;;;;;;9.30;7.17;;;0.50;96.30;;;;;;4880613;29;20988;-78
2021/12/08 09:52:43;;;;;;;11.00;8.13;;;0.50;96.30;;;;;;4880607;29;20194;-78
2021/12/08 09:55:10;;;;;;;12.40;8.63;;;0.40;96.30;;;;;;4880491;29;20971;-78
2021/12/08 09:57:36;;;;;;;13.07;8.43;;;0.40;96.30;;;;;;4880255;29;20410;-77
2021/12/08 10:00:05;;;;;;;14.87;10.10;;;0.30;96.30;;;;;;4880456;29;20410;-78
2021/12/08 10:02:34;;;;;;;33.77;19.17;;;0.40;96.30;;;;;;4864788;29;20888;-77
2021/12/08 10:05:04;;;;;;;11.87;7.80;;;0.30;96.30;;;;;;4873116;29;20532;-78
2021/12/08 10:07:29;;;;;;;11.70;7.57;;;0.30;96.30;;;;;;4850149;29;20949;-77
2021/12/08 10:09:55;;;;;;;17.40;8.40;;;0.30;96.30;;;;;;4861616;29;20490;-77
2021/12/08 10:12:22;;;;;;;8.50;5.73;;;0.20;96.30;;;;;;4861614;29;20195;-78
2021/12/08 10:14:50;;;;;;;11.03;6.20;;;0.10;96.30;;;;;;4860533;29;20211;-78
2021/12/08 10:17:16;;;;;;;11.77;7.67;;;0.10;96.30;;;;;;4860391;29;20420;-77
2021/12/08 10:19:43;;;;;;;9.67;7.37;;;0.10;96.30;;;;;;4849788;29;20439;-77
2021/12/08 10:22:20;;;;;;;6.30;5.20;;;0.00;96.30;;;;;;4850334;29;20440;-78
2021/12/08 10:25:04;;;;;;;10.20;8.00;;;0.00;96.30;;;;;;4850577;29;20884;-77
2021/12/08 10:27:29;;;;;;;9.20;7.07;;;-0.10;96.30;;;;;;4850380;29;20515;-77
2021/12/08 10:30:19;;;;;;;9.93;7.80;;;-0.10;96.30;;;;;;4860957;29;20502;-77
2021/12/08 10:32:46;;;;;;;17.53;8.97;;;-0.20;96.30;;;;;;4879911;29;20543;-77
2021/12/08 10:35:47;;;;;;;21.20;7.27;;;-0.20;96.30;;;;;;4885416;29;20773;-77
2021/12/08 10:38:16;;;;;;;10.60;7.03;;;-0.20;96.30;;;;;;4859947;29;20876;-77
2021/12/08 10:41:04;;;;;;;14.07;9.43;;;-0.20;96.30;;;;;;4861101;29;20435;-77
2021/12/08 10:43:30;;;;;;;9.27;7.70;;;-0.10;96.30;;;;;;4860952;29;20451;-77
2021/12/08 10:46:10;;;;;;;16.17;10.80;;;-0.10;96.30;;;;;;4859500;29;20426;-77
2021/12/08 10:48:43;;;;;;;13.93;9.60;;;0.10;96.30;;;;;;4860943;29;20178;-77
2021/12/08 10:54:30;;;;;;;16.00;9.43;;;0.20;96.30;;;;;;4875471;29;20982;-77
2021/12/08 10:56:57;;;;;;;12.70;8.90;;;0.20;96.30;;;;;;4879118;29;20477;-77
2021/12/08 10:59:28;;;;;;;12.47;8.33;;;0.30;96.30;;;;;;4879518;29;20417;-77
2021/12/08 11:02:03;;;;;;;17.43;10.77;;;0.40;96.30;;;;;;4878075;29;20814;-77
2021/12/08 11:04:30;;;;;;;10.50;6.77;;;0.30;96.30;;;;;;4878218;29;20465;-77
2021/12/08 11:07:08;;;;;;;12.33;9.20;;;0.30;96.30;;;;;;4879176;29;20794;-76
2021/12/08 11:09:42;;;;;;;11.43;8.37;;;0.10;96.30;;;;;;4877973;29;20430;-76
2021/12/08 11:12:08;;;;;;;12.20;8.67;;;0.10;96.30;;;;;;4879184;29;20430;-76
2021/12/08 11:14:48;;;;;;;13.90;9.30;;;0.10;96.30;;;;;;4877039;29;20414;-76
2021/12/08 11:17:24;;;;;;;12.30;8.93;;;0.10;96.30;;;;;;4855731;29;21073;-76
2021/12/08 11:20:10;;;;;;;14.23;8.77;;;0.10;96.30;;;;;;4849447;29;20458;-76
2021/12/08 11:22:35;;;;;;;10.63;7.90;;;0.10;96.30;;;;;;4845906;29;20531;-76
2021/12/08 11:25:01;;;;;;;11.13;7.90;;;0.10;96.30;;;;;;4876937;29;20545;-76
2021/12/08 11:27:33;;;;;;;15.47;10.60;;;0.10;96.30;;;;;;4878346;29;20205;-77
2021/12/08 11:30:14;;;;;;;12.87;9.00;;;0.10;96.30;;;;;;4878865;29;20170;-76
2021/12/08 11:32:39;;;;;;;15.50;9.97;;;0.10;96.30;;;;;;4878827;29;20417;-76
2021/12/08 11:35:17;;;;;;;7.30;5.67;;;0.00;96.30;;;;;;4878890;29;20415;-77
2021/12/08 11:37:42;;;;;;;13.77;8.83;;;-0.20;96.30;;;;;;4878399;29;20665;-76
2021/12/08 11:40:16;;;;;;;14.90;9.30;;;-0.20;96.30;;;;;;4878652;29;20446;-76
2021/12/08 11:42:41;;;;;;;14.17;9.70;;;-0.40;96.30;;;;;;4878689;29;20180;-76
2021/12/08 11:45:13;;;;;;;16.37;11.07;;;-0.40;96.30;;;;;;4908721;29;20410;-76
2021/12/08 11:47:38;;;;;;;17.43;9.50;;;-0.30;96.30;;;;;;4878317;29;20222;-76
2021/12/08 11:50:26;;;;;;;13.27;7.80;;;-0.30;96.30;;;;;;4878616;29;20422;-76
2021/12/08 11:52:53;;;;;;;14.37;7.73;;;-0.40;96.30;;;;;;4878496;29;20180;-76
2021/12/08 11:55:23;;;;;;;15.77;10.03;;;-0.40;96.30;;;;;;4878383;29;20414;-77
2021/12/08 11:57:54;;;;;;;19.00;10.80;;;-0.30;96.30;;;;;;4878276;29;20903;-76
2021/12/08 12:00:28;;;;;;;15.10;10.37;;;-0.30;96.30;;;;;;4878314;29;20418;-76
2021/12/08 12:02:59;;;;;;;17.00;11.50;;;-0.20;96.30;;;;;;4908362;29;20426;-75
2021/12/08 12:05:29;;;;;;;14.57;10.30;;;-0.20;96.30;;;;;;4878379;29;20416;-76
2021/12/08 12:07:55;;;;;;;10.13;7.00;;;-0.40;96.30;;;;;;4862506;29;20412;-75
2021/12/08 12:10:24;;;;;;;17.17;10.90;;;-0.50;96.30;;;;;;4858397;29;20510;-75
2021/12/08 12:12:50;;;;;;;14.67;9.00;;;-0.50;96.30;;;;;;4859636;29;20931;-75
2021/12/08 12:15:19;;;;;;;15.93;10.03;;;-0.50;96.30;;;;;;4860510;29;20415;-77
2021/12/08 12:17:47;;;;;;;17.83;12.47;;;-0.50;96.30;;;;;;4859926;29;20446;-77
2021/12/08 15:08:13;;;;;;;33.97;19.27;;;-1.30;96.30;;;;;;4877127;29;20553;-76
2021/12/08 15:10:39;;;;;;;42.53;21.33;;;-1.30;96.30;;;;;;4879097;29;20446;-77
2021/12/08 15:13:09;;;;;;;41.00;22.63;;;-1.20;96.30;;;;;;4873687;29;20466;-77
2021/12/08 15:15:37;;;;;;;31.93;19.00;;;-1.30;96.30;;;;;;4862675;29;20830;-77
2021/12/08 15:18:09;;;;;;;37.50;19.30;;;-1.20;96.30;;;;;;4859305;29;20475;-76
2021/12/08 15:36:18;;;;;;;32.00;16.87;;;-1.30;96.30;;;;;;5125370;23;20493;-77
2021/12/08 15:38:49;;;;;;;35.20;19.40;;;-1.20;96.30;;;;;;4878899;29;20414;-77
2021/12/08 15:41:18;;;;;;;34.47;19.77;;;-1.20;96.30;;;;;;4878657;29;20546;-77
2021/12/08 15:43:44;;;;;;;44.73;20.93;;;-1.20;96.30;;;;;;4876364;29;20505;-77
2021/12/08 15:46:12;;;;;;;39.10;20.40;;;-1.30;96.30;;;;;;4876933;29;20462;-76
2021/12/08 15:48:48;;;;;;;30.90;17.00;;;-1.40;96.30;;;;;;4877780;29;20181;-76
2021/12/08 15:51:14;;;;;;;37.60;17.80;;;-1.50;96.30;;;;;;4877089;29;20446;-76
2021/12/08 15:53:41;;;;;;;35.90;20.30;;;-1.50;96.30;;;;;;4878532;29;20418;-77
2021/12/08 15:56:19;;;;;;;36.13;21.77;;;-1.50;96.30;;;;;;4879266;29;20188;-77
2021/12/08 15:58:54;;;;;;;36.07;19.80;;;-1.60;96.30;;;;;;4882663;29;20438;-77
2021/12/08 16:09:27;;;;;;;33.07;18.90;;;-1.50;96.30;;;;;;5612395;23;20520;-77
2021/12/08 16:11:59;;;;;;;33.30;16.33;;;-1.50;96.30;;;;;;4860642;29;20812;-76
2021/12/08 16:14:32;;;;;;;24.70;14.47;;;-1.50;96.30;;;;;;4846375;29;20437;-77
2021/12/08 16:17:21;;;;;;;29.67;18.20;;;-1.40;96.30;;;;;;4857128;29;20436;-76
2021/12/08 16:19:49;;;;;;;36.33;17.27;;;-1.50;96.30;;;;;;4843420;29;20463;-76
2021/12/08 16:22:15;;;;;;;32.00;18.43;;;-1.60;96.30;;;;;;4844226;29;21016;-76
2021/12/08 16:24:42;;;;;;;33.53;16.67;;;-1.60;96.30;;;;;;4878104;29;20498;-76
2021/12/08 16:27:13;;;;;;;31.93;17.93;;;-1.60;96.30;;;;;;4878331;29;20845;-76
2021/12/08 16:29:39;;;;;;;31.67;17.50;;;-1.70;96.30;;;;;;4864486;29;20415;-77
2021/12/08 16:37:15;;;;;;;31.97;17.33;;;-1.70;96.30;;;;;;5128492;23;20866;-75
2021/12/08 16:45:11;;;;;;;24.90;13.67;;;-1.80;96.30;;;;;;4896492;29;20492;-75
2021/12/08 16:47:36;;;;;;;32.30;15.37;;;-1.80;96.30;;;;;;4867127;29;20443;-75
2021/12/08 16:50:06;;;;;;;29.37;16.80;;;-1.80;96.30;;;;;;4875465;29;20431;-76
2021/12/08 17:05:29;;;;;;;32.10;17.13;;;-1.80;96.30;;;;;;5950785;23;20404;-77
2021/12/08 17:07:54;;;;;;;34.43;17.37;;;-1.80;96.30;;;;;;4886810;29;20430;-76
2021/12/08 17:10:20;;;;;;;31.10;15.77;;;-1.80;96.30;;;;;;4879584;29;20437;-77
2021/12/08 17:12:46;;;;;;;30.57;18.60;;;-1.70;96.30;;;;;;4881106;29;20346;-77
2021/12/08 17:15:13;;;;;;;31.77;14.20;;;-1.80;96.30;;;;;;4881119;29;21109;-76
2021/12/08 17:17:39;;;;;;;22.87;14.07;;;-1.80;96.30;;;;;;4864991;29;20187;-76
2021/12/08 17:20:07;;;;;;;24.17;11.90;;;-1.80;96.30;;;;;;4844328;29;20431;-77
2021/12/08 19:03:24;;;;;;;29.40;17.50;;;-1.60;96.30;;;;;;4894015;29;20496;-77
2021/12/08 19:05:50;;;;;;;37.87;19.10;;;-1.60;96.30;;;;;;4888208;29;22153;-77
2021/12/08 19:08:18;;;;;;;29.40;17.20;;;-1.60;96.30;;;;;;4882370;29;20272;-77
2021/12/08 19:10:44;;;;;;;34.93;20.03;;;-1.60;96.30;;;;;;4882923;29;20229;-78
2021/12/08 19:13:10;;;;;;;31.60;18.80;;;-1.50;96.30;;;;;;4896028;29;20426;-78
2021/12/08 19:15:36;;;;;;;29.03;17.13;;;-1.50;96.30;;;;;;4896159;29;20453;-77
2021/12/08 19:18:03;;;;;;;31.00;18.60;;;-1.50;96.30;;;;;;4897454;29;20169;-78
2021/12/08 19:20:29;;;;;;;28.70;18.17;;;-1.50;96.30;;;;;;4897624;29;20263;-78
2021/12/08 19:22:56;;;;;;;32.90;18.87;;;-1.50;96.30;;;;;;4896497;29;20854;-78
2021/12/08 19:25:23;;;;;;;37.40;20.63;;;-1.50;96.30;;;;;;4896060;29;20965;-78
2021/12/08 19:27:49;;;;;;;36.07;18.63;;;-1.50;96.30;;;;;;4897347;29;20499;-78
2021/12/08 19:30:16;;;;;;;28.77;17.17;;;-1.50;96.30;;;;;;4897429;29;20409;-78
2021/12/08 19:32:42;;;;;;;32.03;17.03;;;-1.50;96.30;;;;;;4897584;29;20894;-78
2021/12/08 19:35:09;;;;;;;29.53;17.30;;;-1.50;96.30;;;;;;4896339;29;20535;-77
2021/12/08 19:37:34;;;;;;;52.10;25.57;;;-1.40;96.30;;;;;;4896130;29;20767;-78
2021/12/08 19:40:00;;;;;;;53.13;28.80;;;-1.50;96.30;;;;;;4884595;29;20433;-78
2021/12/08 19:42:26;;;;;;;64.53;31.67;;;-1.50;96.30;;;;;;4878043;29;20280;-78
2021/12/08 19:44:52;;;;;;;60.40;31.77;;;-1.50;96.30;;;;;;4877169;29;20264;-78
2021/12/08 19:47:18;;;;;;;34.13;20.97;;;-1.40;96.30;;;;;;4878433;29;20174;-78
2021/12/08 19:49:44;;;;;;;36.80;18.73;;;-1.40;96.30;;;;;;4877228;29;20426;-78
2021/12/08 19:52:10;;;;;;;30.63;16.83;;;-1.40;96.30;;;;;;4877401;29;20549;-78
2021/12/08 19:54:37;;;;;;;29.63;17.13;;;-1.40;96.30;;;;;;4878540;29;20204;-78
2021/12/08 19:57:03;;;;;;;30.53;17.50;;;-1.20;96.30;;;;;;4876822;29;20426;-78
2021/12/08 19:59:29;;;;;;;53.70;19.90;;;-1.20;96.30;;;;;;4878477;29;20456;-78
2021/12/08 20:01:56;;;;;;;33.40;18.90;;;-1.20;96.30;;;;;;4878242;29;20456;-78
2021/12/08 20:04:24;;;;;;;29.53;17.17;;;-1.30;96.30;;;;;;4894307;29;20204;-78
2021/12/08 20:06:50;;;;;;;32.03;17.60;;;-1.30;96.30;;;;;;4894951;29;20417;-78
2021/12/08 20:09:16;;;;;;;30.03;17.57;;;-1.30;96.30;;;;;;4897397;29;20420;-78
2021/12/08 20:11:44;;;;;;;36.23;20.20;;;-1.30;96.30;;;;;;4897406;29;20226;-78
2021/12/08 20:14:10;;;;;;;32.57;17.70;;;-1.40;96.30;;;;;;4897457;29;20417;-78
2021/12/08 20:16:35;;;;;;;29.07;16.50;;;-1.40;96.30;;;;;;4896951;29;20817;-78
2021/12/08 20:19:02;;;;;;;37.50;18.10;;;-1.40;96.30;;;;;;4895949;29;20192;-78
2021/12/08 20:21:28;;;;;;;33.63;18.33;;;-1.40;96.30;;;;;;4896801;29;20479;-78
2021/12/08 20:23:53;;;;;;;36.90;20.23;;;-1.50;96.30;;;;;;4896965;29;20492;-78
2021/12/08 20:26:21;;;;;;;36.23;19.90;;;-1.50;96.30;;;;;;4895553;29;20199;-78
2021/12/08 20:28:49;;;;;;;37.13;18.90;;;-1.50;96.30;;;;;;4897003;29;20181;-78
2021/12/08 20:31:19;;;;;;;32.40;19.20;;;-1.50;96.30;;;;;;4900471;29;20949;-78
2021/12/08 20:33:45;;;;;;;32.10;18.40;;;-1.50;96.30;;;;;;4899527;29;20429;-78
2021/12/08 20:36:15;;;;;;;37.97;20.00;;;-1.50;96.30;;;;;;4899186;29;20982;-78
2021/12/08 20:38:43;;;;;;;37.07;21.30;;;-1.50;96.30;;;;;;4900835;29;20413;-78
2021/12/08 20:41:10;;;;;;;38.53;22.17;;;-1.50;96.30;;;;;;4896423;29;20469;-78
2021/12/08 20:43:38;;;;;;;36.87;21.63;;;-1.50;96.30;;;;;;4899279;29;20548;-78
2021/12/08 20:46:06;;;;;;;38.57;22.47;;;-1.40;96.30;;;;;;4893232;29;20417;-78
2021/12/08 20:48:31;;;;;;;39.50;22.50;;;-1.40;96.30;;;;;;4891779;29;20484;-78
2021/12/08 20:50:57;;;;;;;40.90;21.90;;;-1.30;96.30;;;;;;4891011;29;20429;-78
2021/12/08 20:53:24;;;;;;;33.87;21.20;;;-1.30;96.30;;;;;;4890396;29;20177;-78
2021/12/08 20:55:50;;;;;;;39.63;21.30;;;-1.20;96.30;;;;;;4888759;29;20937;-78
2021/12/08 20:58:18;;;;;;;34.87;18.53;;;-1.20;96.30;;;;;;4889233;29;20464;-78
2021/12/08 21:00:47;;;;;;;34.93;20.03;;;-1.20;96.30;;;;;;4895400;29;20451;-77
2021/12/08 21:03:15;;;;;;;36.17;20.80;;;-1.20;96.30;;;;;;4899875;29;20439;-78
2021/12/08 21:05:44;;;;;;;33.10;19.40;;;-1.20;96.30;;;;;;4899911;29;20429;-78
2021/12/08 21:08:10;;;;;;;34.10;19.13;;;-1.30;96.30;;;;;;4899939;29;20413;-78
2021/12/08 21:10:36;;;;;;;29.63;16.83;;;-1.30;96.30;;;;;;4900039;29;20949;-77
2021/12/08 21:13:02;;;;;;;34.60;22.17;;;-1.30;96.30;;;;;;4900076;29;20455;-78
2021/12/08 21:15:30;;;;;;;33.33;19.90;;;-1.30;96.30;;;;;;4898640;29;20528;-78
2021/12/08 21:17:55;;;;;;;43.37;21.57;;;-1.20;96.30;;;;;;4899773;29;20420;-77
2021/12/08 21:20:25;;;;;;;49.57;24.23;;;-1.20;96.30;;;;;;4899628;29;20425;-78
2021/12/08 21:23:12;;;;;;;30.80;18.90;;;-1.20;96.30;;;;;;4899841;29;20177;-77
2021/12/08 21:25:41;;;;;;;23.20;14.13;;;-1.30;96.30;;;;;;4898619;29;20421;-77
2021/12/08 21:28:09;;;;;;;31.63;17.60;;;-1.30;96.30;;;;;;4899825;29;20437;-79
2021/12/08 21:30:39;;;;;;;36.30;20.97;;;-1.30;96.30;;;;;;4898877;29;20502;-78
2021/12/08 21:33:05;;;;;;;39.60;20.23;;;-1.30;96.30;;;;;;4898618;29;20489;-78
2021/12/08 21:37:58;;;;;;;36.40;19.87;;;-1.30;96.30;;;;;;4899655;29;20413;-78
2021/12/08 21:40:24;;;;;;;46.67;22.53;;;-1.30;96.30;;;;;;4895399;29;20764;-78
2021/12/08 21:42:49;;;;;;;36.90;19.40;;;-1.30;96.30;;;;;;4879533;29;20426;-78
2021/12/08 21:45:16;;;;;;;35.37;22.27;;;-1.30;96.30;;;;;;4879501;29;20458;-77
2021/12/08 21:47:42;;;;;;;37.73;20.70;;;-1.30;96.30;;;;;;4880643;29;20185;-78
2021/12/08 21:50:09;;;;;;;37.17;20.10;;;-1.40;96.30;;;;;;4880779;29;20751;-78
2021/12/08 21:52:35;;;;;;;36.10;18.80;;;-1.40;96.30;;;;;;4879325;29;20437;-78
2021/12/08 21:55:00;;;;;;;34.10;18.03;;;-1.30;96.30;;;;;;4880571;29;20410;-78
2021/12/08 21:57:26;;;;;;;35.80;18.77;;;-1.30;96.30;;;;;;4879202;29;20186;-78
2021/12/08 21:59:52;;;;;;;31.80;18.77;;;-1.30;96.30;;;;;;4880638;29;20659;-77
2021/12/08 22:02:18;;;;;;;30.07;18.47;;;-1.30;96.30;;;;;;4880459;29;20597;-77
2021/12/08 22:04:43;;;;;;;47.10;25.10;;;-1.30;96.30;;;;;;4880450;29;20197;-77
2021/12/08 22:07:09;;;;;;;30.87;19.10;;;-1.30;96.30;;;;;;4880214;29;20178;-77
2021/12/08 22:09:35;;;;;;;34.80;20.70;;;-1.30;96.30;;;;;;4879173;29;20272;-77
2021/12/08 22:12:01;;;;;;;43.63;22.20;;;-1.30;96.30;;;;;;4880290;29;20225;-78
2021/12/08 22:14:27;;;;;;;40.17;21.30;;;-1.30;96.30;;;;;;4880291;29;20925;-77
2021/12/08 22:16:52;;;;;;;34.30;19.20;;;-1.30;96.30;;;;;;4880677;29;20422;-78
2021/12/08 22:19:18;;;;;;;39.13;22.87;;;-1.30;96.30;;;;;;4897734;29;20181;-78
2021/12/08 22:21:43;;;;;;;37.80;21.07;;;-1.30;96.30;;;;;;4898855;29;20196;-79
2021/12/08 22:24:09;;;;;;;43.00;23.13;;;-1.40;96.30;;;;;;4898730;29;20300;-78
2021/12/08 22:26:35;;;;;;;36.97;18.73;;;-1.40;96.30;;;;;;4897444;29;20203;-78
2021/12/08 22:29:00;;;;;;;35.90;20.43;;;-1.40;96.30;;;;;;4898825;29;20177;-78
2021/12/08 22:31:26;;;;;;;30.57;18.60;;;-1.40;96.30;;;;;;4897386;29;20732;-78
2021/12/08 22:33:52;;;;;;;38.67;19.97;;;-1.40;96.30;;;;;;4897455;29;20205;-78
2021/12/08 22:36:19;;;;;;;30.93;18.43;;;-1.40;96.30;;;;;;4898505;29;20224;-78
2021/12/08 22:38:44;;;;;;;26.80;16.50;;;-1.40;96.30;;;;;;4892364;29;20200;-78
2021/12/08 22:41:10;;;;;;;33.13;18.50;;;-1.40;96.30;;;;;;4879676;29;20520;-78
2021/12/08 22:43:36;;;;;;;34.27;18.07;;;-1.30;96.30;;;;;;4877670;29;20197;-78
2021/12/08 22:46:04;;;;;;;30.83;17.37;;;-1.30;96.30;;;;;;4879236;29;20420;-78
2021/12/08 22:48:31;;;;;;;29.50;17.80;;;-1.30;96.30;;;;;;4878413;29;20178;-78
2021/12/08 22:50:57;;;;;;;30.60;18.63;;;-1.30;96.30;;;;;;4879724;29;20481;-79
2021/12/08 22:53:22;;;;;;;31.17;18.60;;;-1.40;96.30;;;;;;4877933;29;20411;-79